Terminal Aerodrome Forecast
Issued by NWS

Home | Current Version | Previous Version | Text Only | Print | Product List | Glossary On
Versions: 1 2 3 4 5 6 7 8 9 10 11 12
000
FTUS46 KSTO 270500
TAFSCK
TAF
KSCK 270539Z 2706/2806 VRB05KT P6SM SKC
     FM271000 12003KT 5SM BR SKC
     FM271200 13003KT 4SM BR SKC
      TEMPO 2712/2716 1SM BR
     FM271900 13007KT 6SM HZ SCT250
     FM280200 VRB04KT P6SM BKN200=

USA.gov is the U.S. government's official web portal to all federal, state and local government web resources and services.